createdAt,value
2023-01-22T00:00:34.944Z,14.10
2023-01-22T00:22:42.260Z,14.00
2023-01-22T00:25:27.913Z,14.00
2023-01-22T00:28:13.622Z,14.00
2023-01-22T01:06:59.108Z,13.80
2023-01-22T01:09:44.814Z,13.80
2023-01-22T01:31:55.475Z,13.80
2023-01-22T01:48:32.706Z,13.80
2023-01-22T01:51:35.685Z,13.70
2023-01-22T02:22:11.657Z,13.70
2023-01-22T02:27:43.275Z,13.70
2023-01-22T02:30:28.865Z,13.70
2023-01-22T02:33:22.778Z,13.70
2023-01-22T02:44:28.749Z,13.70
2023-01-22T03:06:39.444Z,13.60
2023-01-22T03:21:22.406Z,13.60
2023-01-22T03:24:08.204Z,13.50
2023-01-22T03:26:53.919Z,13.50
2023-01-22T03:35:12.243Z,13.50
2023-01-22T03:46:34.718Z,13.50
2023-01-22T03:49:20.797Z,13.50
2023-01-22T03:52:10.609Z,13.50
2023-01-22T03:57:42.848Z,13.50
2023-01-22T04:00:29.374Z,13.50
2023-01-22T04:03:15.103Z,13.50
2023-01-22T04:06:02.253Z,13.50
2023-01-22T04:14:23.360Z,13.50
2023-01-22T04:17:17.477Z,13.50
2023-01-22T04:20:19.204Z,13.40
2023-01-22T04:23:18.060Z,13.40
2023-01-22T04:28:49.859Z,13.50
2023-01-22T04:31:38.217Z,13.40
2023-01-22T04:40:15.814Z,13.40
2023-01-22T04:43:04.805Z,13.40
2023-01-22T04:45:51.713Z,13.40
2023-01-22T04:48:39.844Z,13.40
2023-01-22T04:51:25.472Z,13.50
2023-01-22T04:54:11.251Z,13.60
2023-01-22T04:56:58.061Z,13.70
2023-01-22T04:59:43.718Z,13.80
2023-01-22T05:02:30.221Z,11.70
2023-01-22T05:05:15.991Z,13.90
2023-01-22T05:08:01.678Z,14.00
2023-01-22T05:10:48.584Z,14.10
2023-01-22T05:13:42.794Z,14.10
2023-01-22T05:16:28.910Z,14.20
2023-01-22T05:19:14.606Z,14.20
2023-01-22T05:22:00.357Z,14.20
2023-01-22T05:24:46.112Z,14.30
2023-01-22T05:27:33.097Z,14.50
2023-01-22T05:30:24.031Z,14.50
2023-01-22T05:33:17.760Z,17.60
2023-01-22T05:36:03.623Z,14.70
2023-01-22T05:38:49.890Z,14.80
2023-01-22T05:41:36.703Z,14.90
2023-01-22T05:44:22.395Z,15.00
2023-01-22T05:47:12.492Z,15.10
2023-01-22T05:50:06.442Z,15.20
2023-01-22T05:52:53.968Z,15.20
2023-01-22T05:55:39.926Z,15.30
2023-01-22T05:58:25.624Z,15.40
2023-01-22T06:01:11.998Z,15.30
2023-01-22T06:04:00.415Z,15.40
2023-01-22T06:06:46.032Z,15.30
2023-01-22T06:09:31.582Z,15.30
2023-01-22T06:12:18.528Z,15.30
2023-01-22T06:15:05.610Z,15.30
2023-01-22T06:17:52.384Z,15.30
2023-01-22T06:20:38.639Z,15.30
2023-01-22T06:23:27.986Z,15.30
2023-01-22T06:26:13.407Z,15.20
2023-01-22T06:29:00.153Z,15.20
2023-01-22T06:31:46.828Z,15.10
2023-01-22T06:34:37.365Z,15.10
2023-01-22T06:37:23.709Z,15.10
2023-01-22T06:40:11.029Z,15.10
2023-01-22T06:43:03.809Z,15.10
2023-01-22T06:45:49.783Z,15.10
2023-01-22T06:48:37.098Z,18.30
2023-01-22T06:51:22.779Z,15.00
2023-01-22T06:54:10.847Z,15.00
2023-01-22T06:56:56.485Z,15.00
2023-01-22T06:59:43.346Z,15.00
2023-01-22T07:02:28.891Z,14.90
2023-01-22T07:05:15.584Z,14.90
2023-01-22T07:08:01.163Z,14.90
2023-01-22T07:10:46.536Z,14.90
2023-01-22T07:13:32.166Z,14.90
2023-01-22T07:16:17.979Z,14.90
2023-01-22T07:19:03.495Z,14.90
2023-01-22T07:21:49.553Z,14.90
2023-01-22T07:24:35.209Z,14.90
2023-01-22T07:27:20.856Z,14.90
2023-01-22T07:30:07.038Z,14.90
2023-01-22T07:32:52.760Z,14.90
2023-01-22T07:35:38.924Z,14.90
2023-01-22T07:38:27.071Z,14.90
2023-01-22T07:41:25.259Z,14.90
2023-01-22T07:44:12.058Z,14.90
2023-01-22T07:46:57.766Z,14.90
2023-01-22T07:49:43.469Z,15.00
2023-01-22T07:52:29.198Z,15.00
2023-01-22T07:55:14.943Z,15.00
2023-01-22T07:58:01.906Z,15.00
2023-01-22T08:00:47.585Z,15.00
2023-01-22T08:03:34.100Z,15.00
2023-01-22T08:06:20.783Z,15.00
2023-01-22T08:09:06.403Z,15.00
2023-01-22T08:11:52.837Z,15.00
2023-01-22T08:14:38.248Z,15.00
2023-01-22T08:17:23.788Z,15.00
2023-01-22T08:20:10.528Z,14.90
2023-01-22T08:22:59.621Z,14.90
2023-01-22T08:25:45.316Z,15.00
2023-01-22T08:28:31.475Z,14.90
2023-01-22T08:31:27.412Z,14.90
2023-01-22T08:34:13.637Z,14.90
2023-01-22T08:36:59.220Z,14.90
2023-01-22T08:39:44.874Z,14.90
2023-01-22T08:42:30.596Z,14.90
2023-01-22T08:45:16.114Z,14.90
2023-01-22T08:48:01.871Z,14.90
2023-01-22T08:50:47.426Z,14.90
2023-01-22T08:53:33.193Z,14.90
2023-01-22T08:56:19.018Z,14.90
2023-01-22T08:59:06.587Z,14.90
2023-01-22T09:01:52.306Z,14.90
2023-01-22T09:04:40.295Z,14.90
2023-01-22T09:07:25.938Z,15.00
2023-01-22T09:10:12.908Z,15.00
2023-01-22T09:12:59.908Z,15.00
2023-01-22T09:15:45.262Z,15.00
2023-01-22T09:18:30.839Z,15.10
2023-01-22T09:21:16.459Z,15.10
2023-01-22T09:24:02.041Z,15.10
2023-01-22T09:26:47.681Z,15.10
2023-01-22T09:29:33.295Z,15.10
2023-01-22T09:32:19.085Z,15.20
2023-01-22T09:35:05.117Z,15.20
2023-01-22T09:37:50.404Z,15.20
2023-01-22T09:40:41.930Z,15.30
2023-01-22T09:43:32.782Z,15.30
2023-01-22T09:46:25.136Z,15.30
2023-01-22T09:49:13.611Z,15.30
2023-01-22T09:52:00.524Z,15.40
2023-01-22T09:54:46.256Z,15.40
2023-01-22T09:57:32.583Z,15.40
2023-01-22T10:00:20.315Z,15.40
2023-01-22T10:03:10.546Z,15.40
2023-01-22T10:06:00.746Z,15.50
2023-01-22T10:08:53.084Z,15.40
2023-01-22T10:11:39.233Z,15.40
2023-01-22T10:14:27.567Z,15.40
2023-01-22T10:17:18.912Z,15.50
2023-01-22T10:20:06.111Z,15.50
2023-01-22T10:22:55.781Z,15.50
2023-01-22T10:25:42.760Z,15.50
2023-01-22T10:28:28.436Z,15.50
2023-01-22T10:31:34.573Z,15.50
2023-01-22T10:34:27.399Z,15.50
2023-01-22T10:37:17.572Z,15.60
2023-01-22T10:40:03.036Z,15.60
2023-01-22T10:42:59.553Z,15.60
2023-01-22T10:45:52.111Z,15.60
2023-01-22T10:48:37.348Z,15.60
2023-01-22T10:51:27.585Z,15.70
2023-01-22T10:54:29.732Z,15.70
2023-01-22T10:57:15.313Z,15.70
2023-01-22T11:00:13.314Z,15.70
2023-01-22T11:02:59.489Z,15.70
2023-01-22T11:05:46.519Z,15.70
2023-01-22T11:08:38.699Z,15.70
2023-01-22T11:11:27.695Z,15.70
2023-01-22T11:14:24.671Z,15.60
2023-01-22T11:17:14.122Z,15.60
2023-01-22T11:20:14.237Z,15.60
2023-01-22T11:23:03.633Z,15.60
2023-01-22T11:26:05.788Z,15.60
2023-01-22T11:28:54.188Z,15.60
2023-01-22T11:31:58.844Z,15.60
2023-01-22T11:34:58.400Z,15.50
2023-01-22T11:37:58.597Z,15.50
2023-01-22T11:41:00.149Z,15.50
2023-01-22T11:44:04.578Z,15.50
2023-01-22T11:46:53.241Z,15.50
2023-01-22T11:49:38.873Z,15.50
2023-01-22T11:52:31.078Z,15.60
2023-01-22T11:55:16.691Z,15.60
2023-01-22T11:58:02.324Z,15.60
2023-01-22T12:00:57.152Z,15.60
2023-01-22T12:03:48.670Z,15.50
2023-01-22T12:07:00.692Z,15.60
2023-01-22T12:09:57.911Z,15.60
2023-01-22T12:12:54.780Z,15.60
2023-01-22T12:15:43.376Z,15.60
2023-01-22T12:18:47.449Z,15.60
2023-01-22T12:21:56.571Z,15.50
2023-01-22T12:24:47.816Z,15.50
2023-01-22T12:27:39.200Z,15.50
2023-01-22T12:30:31.187Z,15.40
2023-01-22T12:33:19.078Z,15.40
2023-01-22T12:36:05.673Z,15.40
2023-01-22T12:38:59.740Z,15.40
2023-01-22T12:41:51.112Z,15.40
2023-01-22T12:44:45.992Z,15.40
2023-01-22T12:47:31.752Z,15.40
2023-01-22T12:50:22.817Z,15.40
2023-01-22T12:53:25.051Z,15.40
2023-01-22T12:56:11.044Z,15.40
2023-01-22T12:58:57.315Z,15.40
2023-01-22T13:01:43.392Z,15.40
2023-01-22T13:04:30.362Z,15.30
2023-01-22T13:07:22.045Z,15.40
2023-01-22T13:10:22.444Z,15.40
2023-01-22T13:13:20.252Z,15.40
2023-01-22T13:16:06.047Z,15.40
2023-01-22T13:18:52.875Z,15.50
2023-01-22T13:21:38.396Z,15.60
2023-01-22T13:24:24.288Z,15.50
2023-01-22T13:27:20.788Z,15.50
2023-01-22T13:30:28.589Z,15.40
2023-01-22T13:33:15.232Z,15.40
2023-01-22T13:36:08.020Z,15.40
2023-01-22T13:38:55.377Z,15.40
2023-01-22T13:41:41.000Z,15.50
2023-01-22T13:44:34.212Z,15.50
2023-01-22T13:47:26.976Z,15.50
2023-01-22T13:50:20.213Z,15.50
2023-01-22T13:53:06.164Z,15.60
2023-01-22T13:55:51.955Z,15.60
2023-01-22T13:58:49.390Z,15.60
2023-01-22T14:01:36.403Z,15.60
2023-01-22T14:04:26.628Z,15.60
2023-01-22T14:07:22.692Z,15.60
2023-01-22T14:10:26.492Z,15.60
2023-01-22T14:13:13.385Z,15.60
2023-01-22T14:16:00.248Z,15.60
2023-01-22T14:18:46.800Z,15.60
2023-01-22T14:21:33.755Z,15.70
2023-01-22T14:24:19.268Z,15.70
2023-01-22T14:27:04.967Z,15.70
2023-01-22T14:29:50.725Z,15.60
2023-01-22T14:32:36.064Z,15.60
2023-01-22T14:35:23.454Z,15.60
2023-01-22T14:38:08.687Z,15.60
2023-01-22T14:40:55.377Z,15.60
2023-01-22T14:43:41.068Z,15.60
2023-01-22T14:46:26.651Z,15.60
2023-01-22T14:49:12.351Z,15.60
2023-01-22T14:51:57.868Z,15.60
2023-01-22T14:54:43.604Z,15.50
2023-01-22T14:57:29.387Z,15.50
2023-01-22T15:00:16.057Z,15.50
2023-01-22T15:03:01.584Z,15.50
2023-01-22T15:05:50.371Z,15.60
2023-01-22T15:08:35.964Z,15.60
2023-01-22T15:11:21.555Z,15.60
2023-01-22T15:14:07.279Z,15.60
2023-01-22T15:16:52.684Z,15.70
2023-01-22T15:19:41.477Z,15.70
2023-01-22T15:22:26.925Z,15.70
2023-01-22T15:25:12.629Z,15.80
2023-01-22T15:27:58.315Z,15.70
2023-01-22T15:30:46.886Z,15.80
2023-01-22T15:33:32.462Z,15.80
2023-01-22T15:36:18.353Z,15.80
2023-01-22T15:39:04.095Z,15.80
2023-01-22T15:41:49.788Z,15.80
2023-01-22T15:44:35.412Z,15.80
2023-01-22T15:47:21.231Z,15.80
2023-01-22T15:50:07.093Z,15.80
2023-01-22T15:52:53.348Z,15.80
2023-01-22T15:55:39.306Z,15.80
2023-01-22T15:58:25.202Z,15.70
2023-01-22T16:01:10.861Z,15.80
2023-01-22T16:03:56.582Z,15.80
2023-01-22T16:06:42.283Z,15.80
2023-01-22T16:09:30.022Z,15.70
2023-01-22T16:12:15.556Z,15.70
2023-01-22T16:15:00.926Z,15.70
2023-01-22T16:17:46.483Z,15.70
2023-01-22T16:20:32.111Z,15.80
2023-01-22T16:23:17.664Z,15.70
2023-01-22T16:26:09.342Z,15.70
2023-01-22T16:28:56.621Z,15.60
2023-01-22T16:31:44.282Z,15.70
2023-01-22T16:34:31.849Z,15.60
2023-01-22T16:37:17.965Z,15.60
2023-01-22T16:40:04.270Z,15.60
2023-01-22T16:42:59.558Z,15.70
2023-01-22T16:45:45.009Z,15.70
2023-01-22T16:48:30.462Z,15.70
2023-01-22T16:51:20.590Z,15.80
2023-01-22T16:54:06.781Z,15.70
2023-01-22T16:56:52.592Z,15.70
2023-01-22T16:59:39.554Z,15.70
2023-01-22T17:02:25.147Z,15.80
2023-01-22T17:05:13.067Z,15.70
2023-01-22T17:07:58.824Z,15.70
2023-01-22T17:10:44.495Z,15.70
2023-01-22T17:13:31.030Z,15.70
2023-01-22T17:16:17.015Z,15.60
2023-01-22T17:19:03.177Z,15.70
2023-01-22T17:21:55.132Z,15.70
2023-01-22T17:24:41.679Z,15.70
2023-01-22T17:27:27.069Z,15.80
2023-01-22T17:30:12.960Z,15.80
2023-01-22T17:32:58.383Z,15.80
2023-01-22T17:35:44.103Z,15.80
2023-01-22T17:38:32.776Z,15.80
2023-01-22T17:41:20.053Z,15.90
2023-01-22T17:44:06.078Z,15.80
2023-01-22T17:46:54.759Z,15.90
2023-01-22T17:49:40.309Z,15.90
2023-01-22T17:52:25.856Z,15.90
2023-01-22T17:55:11.289Z,15.90
2023-01-22T17:57:57.282Z,15.80
2023-01-22T18:00:42.651Z,15.70
2023-01-22T18:03:28.233Z,15.70
2023-01-22T18:06:13.812Z,15.70
2023-01-22T18:09:00.630Z,15.70
2023-01-22T18:11:46.370Z,15.70
2023-01-22T18:14:34.038Z,18.90
2023-01-22T18:17:19.640Z,15.70
2023-01-22T18:20:06.775Z,15.70
2023-01-22T18:22:52.910Z,15.70
2023-01-22T18:25:46.865Z,15.70
2023-01-22T18:28:33.205Z,15.70
2023-01-22T18:31:22.236Z,15.80
2023-01-22T18:34:08.794Z,15.80
2023-01-22T18:36:54.126Z,15.80
2023-01-22T18:39:40.775Z,15.80
2023-01-22T18:42:26.951Z,15.80
2023-01-22T18:45:12.479Z,15.80
2023-01-22T18:47:58.357Z,15.80
2023-01-22T18:50:43.960Z,15.80
2023-01-22T18:53:30.884Z,15.80
2023-01-22T18:56:16.595Z,15.80
2023-01-22T18:59:02.015Z,15.80
2023-01-22T19:01:51.677Z,15.80
2023-01-22T19:04:37.323Z,15.80
2023-01-22T19:07:22.958Z,15.80
2023-01-22T19:10:09.495Z,15.80
2023-01-22T19:12:55.522Z,15.80
2023-01-22T19:15:41.392Z,15.70
2023-01-22T19:18:29.435Z,15.80
2023-01-22T19:21:20.023Z,15.80
2023-01-22T19:24:05.371Z,15.80
2023-01-22T19:26:52.163Z,15.90
2023-01-22T19:29:37.938Z,15.80
2023-01-22T19:32:27.976Z,15.80
2023-01-22T19:35:13.538Z,15.90
2023-01-22T19:37:59.192Z,15.90
2023-01-22T19:40:45.039Z,15.90
2023-01-22T19:43:30.535Z,15.90
2023-01-22T19:46:16.139Z,15.90
2023-01-22T19:49:01.879Z,15.90
2023-01-22T19:51:47.988Z,15.90
2023-01-22T19:54:33.345Z,15.90
2023-01-22T19:57:18.824Z,15.80
2023-01-22T20:00:05.930Z,15.60
2023-01-22T20:02:54.539Z,15.50
2023-01-22T20:05:41.050Z,15.40
2023-01-22T20:08:26.978Z,15.30
2023-01-22T20:11:12.996Z,15.20
2023-01-22T20:13:58.951Z,15.10
2023-01-22T20:16:45.497Z,15.00
2023-01-22T20:19:31.262Z,15.00
2023-01-22T20:22:16.970Z,14.90
2023-01-22T20:25:02.689Z,14.90
2023-01-22T20:27:48.383Z,14.90
2023-01-22T20:30:34.081Z,14.90
2023-01-22T20:33:19.601Z,14.80
2023-01-22T20:36:06.799Z,14.80
2023-01-22T20:38:53.136Z,14.80
2023-01-22T20:41:38.688Z,14.80
2023-01-22T20:44:24.345Z,14.80
2023-01-22T20:47:09.988Z,14.80
2023-01-22T20:49:55.584Z,14.80
2023-01-22T20:52:41.310Z,14.80
2023-01-22T20:55:27.061Z,14.80
2023-01-22T20:58:12.677Z,14.80
2023-01-22T21:01:08.912Z,14.80
2023-01-22T21:03:55.303Z,14.80
2023-01-22T21:06:41.303Z,14.70
2023-01-22T21:09:28.045Z,14.70
2023-01-22T21:12:14.034Z,14.70
2023-01-22T21:14:59.330Z,14.70
2023-01-22T21:17:45.174Z,14.70
2023-01-22T21:20:30.760Z,14.70
2023-01-22T21:23:17.060Z,14.70
2023-01-22T21:26:03.740Z,14.70
2023-01-22T21:28:50.030Z,14.70
2023-01-22T21:31:36.481Z,14.70
2023-01-22T21:34:23.460Z,14.70
2023-01-22T21:37:08.812Z,14.70
2023-01-22T21:39:54.583Z,14.60
2023-01-22T21:42:59.384Z,14.60
2023-01-22T21:46:03.582Z,14.50
2023-01-22T21:48:49.143Z,14.50
2023-01-22T21:51:34.588Z,14.50
2023-01-22T21:54:24.600Z,14.50
2023-01-22T21:57:14.672Z,14.40
2023-01-22T22:00:00.145Z,14.40
2023-01-22T22:02:46.002Z,14.40
2023-01-22T22:05:31.504Z,14.30
2023-01-22T22:08:17.024Z,14.40
2023-01-22T22:11:03.633Z,14.30
2023-01-22T22:13:49.325Z,14.30
2023-01-22T22:16:35.026Z,14.30
2023-01-22T22:19:21.143Z,14.30
2023-01-22T22:22:06.662Z,14.20
2023-01-22T22:24:53.760Z,14.20
2023-01-22T22:27:39.389Z,14.20
2023-01-22T22:30:25.600Z,14.20
2023-01-22T22:33:11.421Z,14.20
2023-01-22T22:35:56.800Z,14.20
2023-01-22T22:38:42.883Z,14.20
2023-01-22T22:41:30.334Z,14.10
2023-01-22T22:44:16.921Z,14.10
2023-01-22T22:47:02.381Z,14.10
2023-01-22T22:49:48.068Z,14.10
2023-01-22T22:52:34.034Z,14.10
2023-01-22T22:55:19.667Z,14.10
2023-01-22T22:58:05.361Z,14.10
2023-01-22T23:00:51.017Z,14.10
2023-01-22T23:03:37.537Z,14.00
2023-01-22T23:06:24.529Z,14.10
2023-01-22T23:09:12.075Z,14.10
2023-01-22T23:12:01.008Z,14.10
2023-01-22T23:14:46.205Z,14.00
2023-01-22T23:17:31.831Z,14.00
2023-01-22T23:20:17.796Z,14.00
2023-01-22T23:23:03.467Z,14.00
2023-01-22T23:25:49.325Z,14.00
2023-01-22T23:28:34.668Z,14.00
2023-01-22T23:31:20.149Z,14.00
2023-01-22T23:34:07.207Z,14.00
2023-01-22T23:36:52.491Z,14.00
2023-01-22T23:39:38.210Z,14.00
2023-01-22T23:42:23.735Z,14.00
2023-01-22T23:45:11.625Z,14.00
2023-01-22T23:47:57.458Z,14.00
2023-01-22T23:50:46.571Z,14.00
2023-01-22T23:53:31.995Z,14.00
2023-01-22T23:56:18.728Z,13.90
2023-01-22T23:59:04.600Z,13.90
